Time;durP1;ratioP1;P1;durP2;ratioP2;P2;SDS_P1;SDS_P2;PMS_P1;PMS_P2;Temp;Humidity;BMP_temperature;BMP_pressure;BME280_temperature;BME280_humidity;BME280_pressure;Samples;Min_cycle;Max_cycle;Signal;HPM_P1;HPM_P2
2022/06/02 00:01:35;;;;;;;2.20;1.10;;;23.10;38.80;;;;;;5056881;28;20021;-42
2022/06/02 00:04:07;;;;;;;1.20;0.90;;;23.00;38.70;;;;;;5022501;28;20020;-39
2022/06/02 00:06:41;;;;;;;2.63;1.10;;;23.00;38.70;;;;;;5056619;28;20550;-40
2022/06/02 00:09:06;;;;;;;1.75;1.15;;;23.00;38.80;;;;;;5041289;28;20567;-39
2022/06/02 00:11:55;;;;;;;1.10;1.00;;;23.00;38.80;;;;;;5119896;28;20106;-40
2022/06/02 00:14:36;;;;;;;1.50;1.02;;;23.00;38.80;;;;;;5119790;28;20076;-40
2022/06/02 00:17:30;;;;;;;1.20;1.00;;;23.00;38.80;;;;;;5119031;28;20020;-39
2022/06/02 00:20:15;;;;;;;1.13;0.90;;;23.00;38.90;;;;;;5118292;28;20028;-39
2022/06/02 00:23:29;;;;;;;1.48;1.02;;;23.00;38.90;;;;;;5101573;28;20048;-39
2022/06/02 00:26:30;;;;;;;1.38;1.10;;;23.00;38.90;;;;;;5098782;28;20042;-40
2022/06/02 00:29:18;;;;;;;1.42;1.00;;;23.00;38.90;;;;;;5103331;28;20027;-40
2022/06/02 00:31:56;;;;;;;1.65;1.10;;;23.00;38.90;;;;;;5102188;28;20027;-41
2022/06/02 00:34:42;;;;;;;1.20;1.00;;;23.00;38.90;;;;;;5118642;28;20022;-40
2022/06/02 00:37:23;;;;;;;1.33;0.80;;;23.00;38.90;;;;;;5119009;28;20501;-39
2022/06/02 00:39:50;;;;;;;0.88;0.80;;;23.00;38.90;;;;;;5119366;28;20038;-39
2022/06/02 00:42:49;;;;;;;1.20;1.10;;;23.00;38.90;;;;;;5119275;28;20018;-40
2022/06/02 00:45:16;;;;;;;1.10;0.95;;;23.00;39.00;;;;;;5118245;28;20035;-38
2022/06/02 00:48:00;;;;;;;1.55;1.00;;;23.00;39.00;;;;;;5116743;28;20011;-38
2022/06/02 00:50:45;;;;;;;2.15;1.10;;;23.00;39.00;;;;;;5118184;28;20015;-40
2022/06/02 00:53:34;;;;;;;1.20;1.00;;;23.00;39.10;;;;;;5116891;28;20019;-39
2022/06/02 01:00:19;;;;;;;2.15;1.23;;;23.00;39.10;;;;;;5010506;28;20124;-41
2022/06/02 01:02:56;;;;;;;1.10;1.00;;;23.00;39.10;;;;;;4995605;28;20070;-40
2022/06/02 01:05:44;;;;;;;1.42;0.80;;;23.00;39.10;;;;;;4995683;28;20064;-40
2022/06/02 01:08:25;;;;;;;1.00;0.90;;;22.90;39.10;;;;;;4996271;28;20023;-40
2022/06/02 01:11:13;;;;;;;1.40;0.93;;;22.90;39.10;;;;;;4998101;28;20034;-39
2022/06/02 01:13:48;;;;;;;1.00;0.90;;;23.00;39.20;;;;;;4997802;28;20139;-42
2022/06/02 01:16:22;;;;;;;1.30;1.00;;;22.90;39.20;;;;;;4997228;28;20410;-42
2022/06/02 01:19:04;;;;;;;1.40;0.73;;;22.90;39.20;;;;;;4996935;28;20033;-40
2022/06/02 01:22:02;;;;;;;1.00;0.90;;;22.90;39.20;;;;;;4996776;28;20454;-39
2022/06/02 01:25:00;;;;;;;1.85;1.05;;;22.90;39.20;;;;;;4996543;28;20054;-38
2022/06/02 01:27:43;;;;;;;1.17;1.00;;;22.90;39.20;;;;;;4938061;29;20039;-41
2022/06/02 01:30:44;;;;;;;2.25;0.95;;;22.90;39.20;;;;;;4937175;29;20054;-38
2022/06/02 01:33:22;;;;;;;1.52;0.90;;;22.90;39.30;;;;;;4879964;29;20096;-38
2022/06/02 01:36:09;;;;;;;2.05;1.00;;;22.90;39.40;;;;;;4915893;28;20035;-41
2022/06/02 01:38:47;;;;;;;2.17;1.02;;;22.90;39.40;;;;;;4974267;28;20047;-39
2022/06/02 01:41:22;;;;;;;1.38;0.90;;;22.90;39.40;;;;;;4974362;28;20022;-40
2022/06/02 01:43:58;;;;;;;1.20;0.95;;;22.90;39.40;;;;;;4974369;28;20061;-39
2022/06/02 01:46:49;;;;;;;1.40;0.90;;;22.90;39.40;;;;;;4974971;28;20029;-39
2022/06/02 01:50:15;;;;;;;1.60;0.90;;;22.90;39.40;;;;;;4974979;28;20030;-38
2022/06/02 01:53:06;;;;;;;1.08;0.90;;;22.90;39.40;;;;;;4936310;29;20035;-38
2022/06/02 01:55:51;;;;;;;1.17;0.95;;;22.90;39.40;;;;;;4921011;29;20022;-39
2022/06/02 01:58:40;;;;;;;1.27;0.80;;;22.90;39.50;;;;;;4937143;29;20043;-39
2022/06/02 02:01:18;;;;;;;1.23;0.93;;;22.80;39.40;;;;;;4914311;29;20035;-39
2022/06/02 02:04:13;;;;;;;1.13;0.98;;;22.80;39.40;;;;;;4966995;28;20046;-39
2022/06/02 02:06:44;;;;;;;1.05;0.95;;;22.80;39.40;;;;;;4952979;28;20061;-38
2022/06/02 02:09:35;;;;;;;1.27;0.98;;;22.80;39.50;;;;;;4980856;28;20017;-39
2022/06/02 02:12:01;;;;;;;1.48;1.23;;;22.80;39.50;;;;;;5035000;28;20022;-38
2022/06/02 02:14:45;;;;;;;1.10;0.85;;;22.80;39.50;;;;;;5018834;28;20017;-39
2022/06/02 02:17:29;;;;;;;1.13;0.90;;;22.80;39.50;;;;;;5035225;28;20033;-40
2022/06/02 02:20:28;;;;;;;1.25;0.90;;;22.80;39.50;;;;;;5034966;28;20028;-39
2022/06/02 02:23:15;;;;;;;1.42;1.00;;;22.80;39.50;;;;;;5055269;28;20063;-38
2022/06/02 02:26:13;;;;;;;1.10;1.00;;;22.90;39.50;;;;;;5100507;28;20023;-39
2022/06/02 02:28:49;;;;;;;1.85;1.35;;;22.80;39.50;;;;;;5089386;28;20031;-42
2022/06/02 02:31:33;;;;;;;1.42;1.00;;;22.80;39.50;;;;;;5118821;28;20058;-40
2022/06/02 02:34:04;;;;;;;1.10;0.82;;;22.80;39.50;;;;;;5118810;28;20019;-39
2022/06/02 02:36:36;;;;;;;2.35;1.20;;;22.80;39.50;;;;;;5119491;28;20038;-40
2022/06/02 02:39:33;;;;;;;1.13;0.90;;;22.80;39.60;;;;;;5118214;28;20546;-43
2022/06/02 02:41:59;;;;;;;1.17;0.90;;;22.80;39.60;;;;;;5117769;28;20020;-44
2022/06/02 02:44:34;;;;;;;1.33;0.80;;;22.80;39.60;;;;;;5118647;28;20098;-41
2022/06/02 02:47:02;;;;;;;1.60;0.95;;;22.80;39.60;;;;;;5118701;28;20012;-40
2022/06/02 02:49:43;;;;;;;2.10;1.20;;;22.80;39.60;;;;;;5117770;28;20030;-42
2022/06/02 02:52:56;;;;;;;2.92;1.00;;;22.80;39.60;;;;;;5117810;28;20172;-40
2022/06/02 02:55:28;;;;;;;1.33;1.00;;;22.80;39.60;;;;;;5057133;28;20021;-39
2022/06/02 02:58:18;;;;;;;1.55;1.00;;;22.70;39.60;;;;;;5056162;28;20040;-43
2022/06/02 03:00:59;;;;;;;1.63;1.08;;;22.70;39.50;;;;;;5031440;28;20043;-39
2022/06/02 03:03:52;;;;;;;1.17;1.08;;;22.70;39.60;;;;;;5041877;28;20491;-40
2022/06/02 03:06:24;;;;;;;1.10;1.05;;;22.70;39.60;;;;;;5025710;28;20041;-41
2022/06/02 03:08:59;;;;;;;1.23;0.90;;;22.70;39.60;;;;;;5058099;28;20021;-41
2022/06/02 03:11:45;;;;;;;1.20;0.88;;;22.80;39.60;;;;;;5057082;28;20112;-42
2022/06/02 03:14:34;;;;;;;0.90;0.80;;;22.70;39.60;;;;;;5055922;28;20044;-45
2022/06/02 03:17:24;;;;;;;1.75;1.00;;;22.70;39.60;;;;;;5055360;28;20204;-42
2022/06/02 03:19:57;;;;;;;;;;;22.70;39.60;;;;;;5055793;28;20017;-42
2022/06/02 03:23:02;;;;;;;1.77;1.10;;;22.80;39.60;;;;;;5057154;28;19917;-42
2022/06/02 03:25:49;;;;;;;1.02;0.93;;;22.70;39.60;;;;;;5054815;28;20060;-39
2022/06/02 03:28:17;;;;;;;1.50;1.00;;;22.70;39.60;;;;;;5043820;28;20021;-44
2022/06/02 03:31:12;;;;;;;1.02;0.93;;;22.70;39.60;;;;;;5121716;28;20075;-42
2022/06/02 03:33:56;;;;;;;1.55;1.00;;;22.70;39.60;;;;;;5122378;28;20019;-42
2022/06/02 03:36:43;;;;;;;1.05;0.95;;;22.70;39.60;;;;;;5122607;28;20104;-41
2022/06/02 03:39:17;;;;;;;1.73;1.23;;;22.70;39.60;;;;;;5125362;28;20015;-40
2022/06/02 03:41:58;;;;;;;1.50;1.10;;;22.70;39.60;;;;;;5124365;28;20008;-41
2022/06/02 03:44:49;;;;;;;1.30;0.90;;;22.70;39.60;;;;;;5124836;27;20036;-42
2022/06/02 03:47:37;;;;;;;1.13;1.02;;;22.70;39.60;;;;;;5105291;28;20076;-41
2022/06/02 03:50:37;;;;;;;1.10;1.00;;;22.70;39.60;;;;;;5123056;28;20027;-41
2022/06/02 03:53:13;;;;;;;1.63;1.00;;;22.60;39.60;;;;;;5123583;28;20039;-38
2022/06/02 03:55:57;;;;;;;1.15;1.05;;;22.70;39.60;;;;;;5124290;28;20077;-43
2022/06/02 03:58:33;;;;;;;1.98;1.10;;;22.70;39.70;;;;;;5124833;28;20045;-43
2022/06/02 04:01:04;;;;;;;1.30;1.10;;;22.70;39.60;;;;;;5123665;28;20015;-41
2022/06/02 04:03:40;;;;;;;1.50;1.23;;;22.60;39.50;;;;;;5124484;28;20057;-40
2022/06/02 04:06:12;;;;;;;1.10;1.00;;;22.60;39.50;;;;;;5105462;28;20035;-42
2022/06/02 04:09:08;;;;;;;1.27;1.02;;;22.70;39.60;;;;;;5123373;28;20076;-39
2022/06/02 04:15:06;;;;;;;1.30;0.93;;;22.60;39.60;;;;;;5122130;28;20057;-43
2022/06/02 04:17:51;;;;;;;1.00;0.90;;;22.60;39.50;;;;;;5120283;28;20024;-39
2022/06/02 04:20:35;;;;;;;1.75;1.00;;;22.60;39.50;;;;;;5119750;28;20024;-39
2022/06/02 04:23:22;;;;;;;1.58;1.10;;;22.60;39.50;;;;;;5119114;28;20047;-39
2022/06/02 04:26:01;;;;;;;2.35;1.52;;;22.60;39.50;;;;;;5119257;28;20028;-39
2022/06/02 04:28:43;;;;;;;1.23;1.02;;;22.70;39.50;;;;;;5119293;28;20019;-44
2022/06/02 04:31:27;;;;;;;2.10;1.40;;;22.60;39.40;;;;;;5121386;28;20039;-42
2022/06/02 04:34:05;;;;;;;1.20;1.00;;;22.70;39.40;;;;;;5121656;28;20022;-41
2022/06/02 04:36:49;;;;;;;1.60;1.02;;;22.70;39.30;;;;;;5120234;28;20019;-46
2022/06/02 04:39:51;;;;;;;2.28;1.30;;;22.70;39.30;;;;;;5121223;28;20450;-41
2022/06/02 04:42:27;;;;;;;1.67;1.10;;;22.80;39.20;;;;;;5121454;28;20015;-41
2022/06/02 04:45:21;;;;;;;1.33;1.00;;;22.80;39.10;;;;;;5121241;28;20034;-43
2022/06/02 04:47:50;;;;;;;1.13;1.00;;;22.90;39.00;;;;;;5120018;28;20038;-40
2022/06/02 04:50:46;;;;;;;2.42;1.23;;;23.00;38.70;;;;;;5119266;28;20015;-42
2022/06/02 04:53:40;;;;;;;1.40;1.10;;;23.10;38.60;;;;;;5119938;28;20038;-42
2022/06/02 04:56:06;;;;;;;1.70;1.10;;;23.20;38.40;;;;;;5123460;28;20027;-45
2022/06/02 04:59:11;;;;;;;1.10;1.00;;;23.30;38.30;;;;;;5122769;28;20068;-40
2022/06/02 05:01:42;;;;;;;1.10;0.95;;;23.40;38.10;;;;;;5122314;28;20019;-39
2022/06/02 05:04:40;;;;;;;1.27;1.08;;;23.50;37.80;;;;;;5119928;28;20057;-39
2022/06/02 05:07:36;;;;;;;1.45;1.02;;;23.70;37.70;;;;;;5066215;28;20033;-42
2022/06/02 05:10:17;;;;;;;1.40;1.20;;;23.80;37.30;;;;;;5120523;28;20023;-45
2022/06/02 05:13:10;;;;;;;1.98;1.00;;;23.90;37.10;;;;;;5118250;28;20541;-39
2022/06/02 05:15:57;;;;;;;1.83;1.17;;;23.90;37.00;;;;;;5119877;28;20015;-42
2022/06/02 05:18:35;;;;;;;2.08;1.35;;;23.90;37.00;;;;;;5118783;28;20016;-38
2022/06/02 05:21:03;;;;;;;3.25;1.80;;;23.90;37.00;;;;;;5117602;28;20024;-38
2022/06/02 05:24:06;;;;;;;3.17;1.60;;;23.50;37.10;;;;;;5116325;28;20056;-38
2022/06/02 05:26:52;;;;;;;2.70;1.83;;;22.70;39.30;;;;;;5116098;27;20103;-38
2022/06/02 05:29:25;;;;;;;4.60;2.00;;;22.40;40.00;;;;;;5114694;28;20024;-39
2022/06/02 05:32:12;;;;;;;2.30;2.00;;;22.10;40.80;;;;;;5116277;28;20091;-38
2022/06/02 05:35:15;;;;;;;3.50;2.20;;;21.90;41.40;;;;;;5116890;28;20031;-38
2022/06/02 05:38:00;;;;;;;3.47;2.10;;;21.70;41.90;;;;;;5117405;28;20073;-38
2022/06/02 05:40:38;;;;;;;5.68;2.53;;;21.80;41.80;;;;;;5116624;28;20099;-38
2022/06/02 05:43:19;;;;;;;3.63;2.15;;;22.00;41.50;;;;;;5114985;28;20015;-39
2022/06/02 05:45:57;;;;;;;2.78;2.40;;;22.00;41.60;;;;;;5115420;28;20031;-36
2022/06/02 05:48:37;;;;;;;4.28;2.42;;;21.90;41.70;;;;;;5115775;27;20023;-37
2022/06/02 05:51:05;;;;;;;2.80;2.13;;;21.80;41.90;;;;;;5114813;28;20046;-41
2022/06/02 05:53:53;;;;;;;2.80;2.10;;;22.00;41.80;;;;;;5115123;28;20026;-36
2022/06/02 05:56:49;;;;;;;2.55;2.08;;;22.00;41.90;;;;;;5113625;28;20458;-37
2022/06/02 05:59:38;;;;;;;5.75;2.90;;;22.30;41.20;;;;;;5114625;28;20065;-38
2022/06/02 06:02:26;;;;;;;5.57;3.47;;;22.60;40.20;;;;;;5113000;28;20131;-39
2022/06/02 06:05:00;;;;;;;4.13;3.28;;;23.00;39.50;;;;;;5114236;28;20063;-38
2022/06/02 06:07:46;;;;;;;4.90;3.55;;;23.10;39.90;;;;;;5113941;28;20024;-39
2022/06/02 06:10:31;;;;;;;6.40;3.70;;;23.20;39.00;;;;;;5112294;28;20012;-38
2022/06/02 06:13:13;;;;;;;5.65;3.25;;;23.20;39.00;;;;;;5114214;28;20054;-39
2022/06/02 06:15:45;;;;;;;4.80;3.42;;;23.30;38.90;;;;;;5113886;28;20039;-39
2022/06/02 06:18:21;;;;;;;5.15;3.22;;;23.50;38.70;;;;;;5113921;28;20076;-38
2022/06/02 06:21:25;;;;;;;4.88;3.00;;;23.60;38.50;;;;;;5110870;28;20158;-39
2022/06/02 06:24:17;;;;;;;26.05;4.65;;;23.60;38.20;;;;;;5108554;28;20524;-38
2022/06/02 06:27:01;;;;;;;31.25;7.30;;;22.80;43.10;;;;;;5112913;28;20104;-39
2022/06/02 06:29:50;;;;;;;20.08;8.75;;;22.10;44.10;;;;;;5111764;28;20110;-37
2022/06/02 06:32:45;;;;;;;18.67;6.28;;;21.80;43.30;;;;;;5112687;28;20098;-37
2022/06/02 06:35:23;;;;;;;20.52;7.45;;;21.70;43.10;;;;;;5113475;28;20026;-37
2022/06/02 06:38:04;;;;;;;11.85;6.38;;;21.60;43.60;;;;;;5111966;28;20011;-38
2022/06/02 06:40:46;;;;;;;9.20;5.53;;;22.30;43.00;;;;;;5095883;28;20035;-38
2022/06/02 06:43:33;;;;;;;9.82;5.25;;;21.90;42.70;;;;;;5113394;28;20051;-37
2022/06/02 06:46:00;;;;;;;9.77;4.35;;;22.00;42.50;;;;;;5113087;28;20031;-38
2022/06/02 06:48:52;;;;;;;8.48;4.97;;;22.20;42.70;;;;;;5113136;28;20019;-38
2022/06/02 06:51:21;;;;;;;10.18;4.88;;;22.80;41.40;;;;;;5111620;28;20466;-38
2022/06/02 06:54:24;;;;;;;7.57;4.03;;;22.50;42.00;;;;;;5112772;28;20023;-38
2022/06/02 06:56:57;;;;;;;7.85;4.22;;;22.10;42.40;;;;;;5112787;28;20083;-38
2022/06/02 06:59:42;;;;;;;8.70;5.80;;;22.20;43.00;;;;;;5112991;28;20023;-39
2022/06/02 07:02:32;;;;;;;7.65;4.70;;;21.80;42.70;;;;;;5112001;28;20024;-38
2022/06/02 07:05:20;;;;;;;7.13;5.82;;;22.60;41.50;;;;;;5111574;28;20055;-38
2022/06/02 07:07:46;;;;;;;7.85;6.07;;;22.00;42.30;;;;;;5095194;28;20133;-37
2022/06/02 07:10:36;;;;;;;8.20;3.47;;;21.60;43.30;;;;;;5113656;28;20035;-37
2022/06/02 07:13:07;;;;;;;13.65;6.28;;;22.10;42.50;;;;;;5113123;28;20030;-37
2022/06/02 07:15:48;;;;;;;18.08;6.45;;;22.30;42.50;;;;;;5115442;28;20031;-37
2022/06/02 07:18:43;;;;;;;9.82;4.75;;;21.70;43.70;;;;;;5117150;28;20103;-38
2022/06/02 07:21:41;;;;;;;12.48;4.57;;;22.00;43.50;;;;;;5116922;28;20097;-36
2022/06/02 07:24:30;;;;;;;33.33;6.53;;;22.40;42.20;;;;;;5117045;28;20088;-38
2022/06/02 07:27:05;;;;;;;30.92;6.28;;;22.30;41.80;;;;;;5115842;28;20111;-37
2022/06/02 07:29:33;;;;;;;20.73;4.68;;;22.00;41.90;;;;;;5117459;28;20020;-37
2022/06/02 07:32:23;;;;;;;24.92;5.40;;;21.90;42.30;;;;;;5118895;28;20016;-36
2022/06/02 07:34:55;;;;;;;30.35;5.10;;;21.60;42.80;;;;;;5117252;28;20016;-38
2022/06/02 07:37:28;;;;;;;31.23;4.95;;;21.40;43.30;;;;;;5117922;28;20512;-37
2022/06/02 07:40:13;;;;;;;26.48;3.70;;;21.10;44.10;;;;;;5116651;28;20043;-38
2022/06/02 07:42:53;;;;;;;21.17;4.50;;;22.10;42.00;;;;;;5117117;28;20026;-38
2022/06/02 07:45:35;;;;;;;9.52;2.85;;;22.50;40.90;;;;;;5117067;28;20019;-37
2022/06/02 07:48:07;;;;;;;13.80;3.90;;;22.00;41.70;;;;;;5117200;28;20012;-38
2022/06/02 07:50:35;;;;;;;24.50;4.72;;;21.70;41.90;;;;;;5116151;28;20035;-38
2022/06/02 07:53:36;;;;;;;12.63;2.70;;;22.10;41.40;;;;;;5098272;28;20505;-38
2022/06/02 07:56:22;;;;;;;10.45;4.10;;;22.40;40.50;;;;;;5053628;28;20031;-38
2022/06/02 07:59:16;;;;;;;7.82;2.10;;;22.20;40.80;;;;;;5053121;28;20033;-38
2022/06/02 08:02:09;;;;;;;14.00;2.40;;;22.60;40.60;;;;;;5052130;28;20047;-37
2022/06/02 08:05:00;;;;;;;6.40;1.50;;;23.30;38.70;;;;;;5051917;28;20083;-36
2022/06/02 08:07:43;;;;;;;7.97;1.52;;;23.70;37.80;;;;;;5037873;28;20033;-38
2022/06/02 08:10:37;;;;;;;3.80;1.70;;;24.10;36.90;;;;;;5035632;28;20025;-38
2022/06/02 08:13:17;;;;;;;7.03;2.00;;;24.30;36.50;;;;;;5035315;28;20013;-39
2022/06/02 08:15:42;;;;;;;;;;;24.40;36.30;;;;;;5035052;28;20017;-38
2022/06/02 08:18:42;;;;;;;6.13;1.50;;;24.40;36.10;;;;;;5050783;28;20003;-39
2022/06/02 08:21:16;;;;;;;9.73;2.50;;;24.50;36.00;;;;;;5052146;28;20022;-39
2022/06/02 08:23:59;;;;;;;7.78;4.10;;;24.00;37.10;;;;;;5052635;28;20114;-38
2022/06/02 08:26:46;;;;;;;8.93;4.22;;;23.40;37.40;;;;;;5020637;28;20051;-38
2022/06/02 08:29:17;;;;;;;9.93;4.93;;;22.80;38.90;;;;;;5062513;28;20047;-38
2022/06/02 08:31:49;;;;;;;9.48;4.97;;;22.50;39.80;;;;;;5115808;28;20027;-37
2022/06/02 08:34:38;;;;;;;11.20;4.40;;;21.90;40.80;;;;;;5114311;28;20027;-38
2022/06/02 08:37:32;;;;;;;6.00;3.80;;;22.10;40.70;;;;;;5114448;28;20035;-39
2022/06/02 08:40:33;;;;;;;9.90;4.80;;;22.40;40.00;;;;;;5115265;28;20068;-38
2022/06/02 08:43:39;;;;;;;6.57;3.00;;;22.30;39.70;;;;;;5114255;28;20084;-39
2022/06/02 08:46:16;;;;;;;6.60;3.55;;;22.70;39.40;;;;;;5114825;28;20031;-38
2022/06/02 08:48:54;;;;;;;4.50;2.30;;;22.70;39.10;;;;;;5115181;28;20104;-39
2022/06/02 08:51:41;;;;;;;3.85;2.20;;;22.90;38.70;;;;;;5115142;28;20117;-40
2022/06/02 08:54:10;;;;;;;9.48;2.80;;;22.80;39.10;;;;;;5114885;28;20028;-40
2022/06/02 08:57:05;;;;;;;4.88;3.25;;;22.70;39.20;;;;;;5114344;28;20462;-39
2022/06/02 08:59:49;;;;;;;5.68;3.03;;;22.90;38.50;;;;;;5099094;28;20474;-38
2022/06/02 09:02:52;;;;;;;4.82;3.05;;;22.70;38.80;;;;;;5113265;28;20061;-38
2022/06/02 09:05:23;;;;;;;5.25;2.30;;;22.20;39.60;;;;;;5113995;28;20469;-38
2022/06/02 09:08:30;;;;;;;5.03;2.35;;;22.40;39.50;;;;;;5113579;28;20046;-38
2022/06/02 09:11:34;;;;;;;11.93;2.92;;;22.80;38.50;;;;;;5112884;28;20012;-38
2022/06/02 09:14:24;;;;;;;18.95;3.58;;;22.40;39.90;;;;;;5090146;28;20114;-37
2022/06/02 09:16:52;;;;;;;9.93;3.58;;;22.40;39.50;;;;;;5112738;28;20008;-37
2022/06/02 09:19:34;;;;;;;10.05;3.42;;;22.40;39.60;;;;;;5114881;28;20115;-38
2022/06/02 09:22:06;;;;;;;6.60;3.30;;;22.30;39.10;;;;;;5095730;28;20051;-37
2022/06/02 09:24:50;;;;;;;6.35;2.70;;;22.30;39.10;;;;;;5114184;28;20479;-37
2022/06/02 09:27:53;;;;;;;4.63;2.90;;;22.50;38.90;;;;;;5114701;28;20016;-37
2022/06/02 09:30:43;;;;;;;7.13;2.85;;;22.30;39.40;;;;;;5114615;28;20069;-37
2022/06/02 09:33:33;;;;;;;;;;;22.40;38.90;;;;;;5114419;28;20023;-37
2022/06/02 09:36:17;;;;;;;4.15;2.65;;;22.30;39.00;;;;;;5113965;28;19900;-37
2022/06/02 09:39:09;;;;;;;4.10;2.55;;;22.40;39.10;;;;;;5114607;28;20016;-37
2022/06/02 09:42:05;;;;;;;3.58;2.88;;;22.40;38.80;;;;;;5113818;28;20023;-37
2022/06/02 09:44:46;;;;;;;4.75;2.60;;;21.90;40.10;;;;;;5113765;28;20031;-34
2022/06/02 09:47:27;;;;;;;7.70;2.85;;;21.70;40.80;;;;;;5112875;28;20022;-39
2022/06/02 09:50:18;;;;;;;3.35;2.20;;;21.90;40.00;;;;;;5096941;28;20008;-39
2022/06/02 09:53:05;;;;;;;8.90;2.67;;;22.10;39.90;;;;;;5113985;28;20020;-37
2022/06/02 09:55:58;;;;;;;3.70;2.13;;;22.40;39.40;;;;;;5113997;28;20023;-38
2022/06/02 09:58:36;;;;;;;8.63;2.38;;;22.30;39.30;;;;;;5113430;28;20128;-39
2022/06/02 10:01:10;;;;;;;7.22;2.20;;;22.50;38.90;;;;;;5115168;28;20069;-38
2022/06/02 10:04:18;;;;;;;3.13;2.20;;;22.60;38.00;;;;;;5115261;28;20426;-39
2022/06/02 10:07:21;;;;;;;4.68;1.85;;;22.80;38.00;;;;;;5107298;28;20050;-39
2022/06/02 10:10:06;;;;;;;6.75;2.03;;;23.00;37.20;;;;;;5114849;28;20026;-39
2022/06/02 10:13:00;;;;;;;3.63;1.30;;;23.30;36.70;;;;;;5114108;28;20490;-39
2022/06/02 10:16:06;;;;;;;4.63;1.55;;;23.40;36.20;;;;;;5113445;28;20019;-37
2022/06/02 10:18:35;;;;;;;3.00;1.38;;;23.50;35.80;;;;;;5113906;28;20020;-38
2022/06/02 10:21:10;;;;;;;3.35;1.38;;;23.70;35.20;;;;;;5113916;28;20055;-39
2022/06/02 10:24:01;;;;;;;3.75;1.27;;;23.90;34.90;;;;;;5113901;28;20045;-38
2022/06/02 10:26:27;;;;;;;3.13;1.40;;;23.80;34.60;;;;;;5113075;28;20204;-39
2022/06/02 10:29:00;;;;;;;2.97;1.23;;;23.80;34.50;;;;;;5113758;28;20086;-39
2022/06/02 10:32:04;;;;;;;4.75;1.50;;;23.80;34.60;;;;;;5114384;28;20093;-39
2022/06/02 10:34:48;;;;;;;3.13;1.40;;;23.60;34.80;;;;;;5116861;28;20015;-39
2022/06/02 10:37:37;;;;;;;2.85;1.30;;;23.50;34.50;;;;;;5115594;28;20016;-39
2022/06/02 10:40:34;;;;;;;3.30;1.30;;;23.60;34.30;;;;;;5114068;28;20016;-39
2022/06/02 10:43:08;;;;;;;2.47;1.10;;;23.50;34.20;;;;;;5095860;28;20481;-39
2022/06/02 10:46:05;;;;;;;2.78;1.20;;;23.50;34.10;;;;;;5111940;28;20102;-39
2022/06/02 10:48:49;;;;;;;3.10;1.20;;;23.50;34.00;;;;;;5097015;28;20466;-38
2022/06/02 10:51:36;;;;;;;3.92;1.60;;;23.20;35.00;;;;;;5112534;28;20043;-38
2022/06/02 10:54:32;;;;;;;4.68;1.65;;;22.90;36.00;;;;;;5113350;28;20182;-39
2022/06/02 10:57:35;;;;;;;13.38;2.78;;;23.00;37.40;;;;;;5114127;28;20051;-38
2022/06/02 11:00:15;;;;;;;11.13;2.13;;;23.10;37.30;;;;;;5113636;28;20016;-39
2022/06/02 11:03:00;;;;;;;13.73;2.55;;;23.30;36.50;;;;;;5094946;28;20027;-39
2022/06/02 11:05:45;;;;;;;12.68;1.83;;;23.30;37.70;;;;;;5112478;28;20122;-38
2022/06/02 11:08:47;;;;;;;10.98;1.88;;;23.10;37.20;;;;;;5112207;28;20451;-39
2022/06/02 11:11:50;;;;;;;5.35;1.70;;;23.20;37.00;;;;;;5088529;28;20032;-38
2022/06/02 11:14:54;;;;;;;7.95;1.83;;;23.10;37.00;;;;;;5112018;28;20024;-37
2022/06/02 11:17:38;;;;;;;5.85;1.63;;;23.00;36.80;;;;;;5111787;28;20077;-37
2022/06/02 11:20:41;;;;;;;4.82;1.50;;;22.90;37.30;;;;;;5112121;28;20016;-38
2022/06/02 11:23:51;;;;;;;2.33;1.45;;;22.70;37.40;;;;;;5111856;28;20506;-37
2022/06/02 11:26:16;;;;;;;4.07;1.40;;;22.80;37.30;;;;;;5032099;28;20033;-38
2022/06/02 11:29:12;;;;;;;7.97;1.45;;;23.00;37.10;;;;;;5048342;28;20079;-38
2022/06/02 11:31:59;;;;;;;5.13;2.05;;;23.20;36.50;;;;;;5040537;28;20131;-38
2022/06/02 11:34:33;;;;;;;2.78;2.03;;;23.20;36.10;;;;;;5048686;28;20079;-38
2022/06/02 11:37:02;;;;;;;14.02;2.28;;;23.10;36.00;;;;;;5032058;28;20025;-37
2022/06/02 11:39:43;;;;;;;3.28;2.30;;;22.90;36.30;;;;;;5032032;28;20022;-35
2022/06/02 11:42:30;;;;;;;8.07;2.03;;;22.40;37.20;;;;;;5049341;28;20056;-34
2022/06/02 11:45:00;;;;;;;5.65;2.38;;;22.40;37.90;;;;;;5050016;28;20029;-35
2022/06/02 11:47:31;;;;;;;5.95;2.00;;;22.90;37.50;;;;;;5049960;28;20033;-35
2022/06/02 11:50:14;;;;;;;5.47;2.40;;;23.00;37.70;;;;;;5050414;28;20021;-35
2022/06/02 11:52:46;;;;;;;7.15;2.28;;;23.20;37.30;;;;;;5050128;28;20028;-35
2022/06/02 11:55:26;;;;;;;3.80;1.90;;;23.30;37.20;;;;;;5050433;28;20017;-34
2022/06/02 11:58:06;;;;;;;3.03;2.25;;;23.30;37.60;;;;;;5049827;28;20054;-35
2022/06/02 12:00:50;;;;;;;;;;;23.30;36.50;;;;;;5093971;28;20019;-36
2022/06/02 12:03:49;;;;;;;4.05;2.17;;;23.10;36.00;;;;;;5117085;28;19899;-35
2022/06/02 12:06:33;;;;;;;7.25;2.47;;;23.10;35.80;;;;;;5115188;28;20022;-37
2022/06/02 12:09:30;;;;;;;3.75;1.80;;;22.60;36.70;;;;;;5116811;28;20016;-37
2022/06/02 12:12:15;;;;;;;6.70;1.77;;;22.80;37.40;;;;;;5116323;28;20459;-38
2022/06/02 12:15:12;;;;;;;6.10;1.65;;;23.00;37.30;;;;;;5116216;28;20016;-38
2022/06/02 12:18:09;;;;;;;8.95;1.63;;;23.20;36.90;;;;;;5116345;28;20019;-38
2022/06/02 12:20:52;;;;;;;2.75;2.15;;;23.50;36.70;;;;;;5116144;28;20106;-37
2022/06/02 12:23:39;;;;;;;3.65;2.10;;;23.60;36.00;;;;;;5116101;28;20075;-36
2022/06/02 12:26:06;;;;;;;6.70;2.00;;;23.50;36.10;;;;;;5115665;28;20047;-36
2022/06/02 12:29:10;;;;;;;5.35;2.20;;;23.40;35.80;;;;;;5115363;28;20753;-36
2022/06/02 12:32:00;;;;;;;7.78;1.77;;;23.40;36.10;;;;;;5114843;28;20032;-37
2022/06/02 12:34:56;;;;;;;17.75;1.80;;;23.50;36.10;;;;;;5116123;28;20057;-36
2022/06/02 12:38:00;;;;;;;11.98;2.42;;;23.80;36.50;;;;;;5115485;28;20018;-35
2022/06/02 12:40:50;;;;;;;11.68;2.20;;;24.10;36.60;;;;;;5083640;28;20494;-36
2022/06/02 12:43:21;;;;;;;13.15;2.28;;;24.20;36.90;;;;;;5116094;28;20012;-37
2022/06/02 12:45:49;;;;;;;14.20;2.20;;;24.40;37.10;;;;;;5115996;28;20032;-37
2022/06/02 12:48:23;;;;;;;16.35;2.55;;;24.50;37.00;;;;;;5114113;28;20462;-35
2022/06/02 12:51:13;;;;;;;22.40;2.85;;;24.60;36.90;;;;;;5116110;28;20016;-35
2022/06/02 12:53:49;;;;;;;;;;;24.70;37.00;;;;;;5116094;28;20018;-37
2022/06/02 12:56:37;;;;;;;10.15;2.05;;;24.80;37.10;;;;;;5113688;28;19994;-37
2022/06/02 12:59:30;;;;;;;11.98;2.10;;;24.80;37.20;;;;;;5115575;28;20466;-37
2022/06/02 13:02:02;;;;;;;11.65;2.00;;;24.80;37.40;;;;;;5114100;28;20016;-37
2022/06/02 13:05:05;;;;;;;11.82;1.90;;;24.90;37.40;;;;;;5113614;28;20015;-38
2022/06/02 13:08:14;;;;;;;10.57;1.98;;;24.90;37.50;;;;;;5113906;28;20016;-37
2022/06/02 13:11:19;;;;;;;12.77;2.10;;;25.00;37.70;;;;;;5115242;28;20037;-39
2022/06/02 13:14:04;;;;;;;8.30;1.90;;;25.00;37.70;;;;;;5114161;28;20032;-38
2022/06/02 13:16:39;;;;;;;9.82;1.90;;;25.00;37.90;;;;;;5114332;28;20076;-39
2022/06/02 13:19:42;;;;;;;9.68;1.65;;;25.10;37.90;;;;;;5114257;28;20023;-45
2022/06/02 13:22:16;;;;;;;8.73;1.73;;;25.10;37.90;;;;;;5113605;28;20097;-38
2022/06/02 13:24:54;;;;;;;11.80;2.15;;;24.90;38.00;;;;;;5114353;28;20080;-38
2022/06/02 13:27:33;;;;;;;10.18;1.88;;;24.90;37.80;;;;;;5116596;28;20118;-38
2022/06/02 13:30:30;;;;;;;9.77;2.10;;;24.90;37.60;;;;;;5117432;28;20029;-39
2022/06/02 13:33:10;;;;;;;6.65;1.42;;;24.80;37.30;;;;;;5117055;28;20489;-38
2022/06/02 13:35:54;;;;;;;8.20;1.40;;;24.80;37.10;;;;;;5117241;28;20023;-39
2022/06/02 13:38:45;;;;;;;10.93;1.55;;;24.70;37.00;;;;;;5114974;28;20493;-39
2022/06/02 13:41:41;;;;;;;5.93;1.40;;;24.70;36.90;;;;;;5115064;28;20107;-38
2022/06/02 13:44:31;;;;;;;5.55;1.50;;;24.70;36.90;;;;;;5115409;28;20023;-39
2022/06/02 13:47:03;;;;;;;;;;;24.60;36.80;;;;;;5116912;28;20724;-38
2022/06/02 13:49:59;;;;;;;6.22;1.40;;;24.60;36.80;;;;;;5116463;28;19922;-39
2022/06/02 13:52:40;;;;;;;8.50;1.73;;;24.60;36.70;;;;;;5115646;28;20441;-38
2022/06/02 13:58:18;;;;;;;11.27;2.13;;;24.50;36.50;;;;;;5115500;28;20030;-38
2022/06/02 14:00:58;;;;;;;7.43;1.70;;;24.50;36.40;;;;;;5115463;28;20015;-39
2022/06/02 14:03:53;;;;;;;6.10;1.17;;;24.50;36.40;;;;;;5115233;28;20031;-38
2022/06/02 14:06:21;;;;;;;5.20;1.48;;;24.50;36.20;;;;;;5113580;28;20095;-38
2022/06/02 14:09:08;;;;;;;4.00;1.15;;;24.50;36.20;;;;;;5115735;28;20019;-38
2022/06/02 14:11:48;;;;;;;5.13;1.83;;;24.50;36.10;;;;;;5116911;28;20091;-39
2022/06/02 14:14:26;;;;;;;4.82;1.10;;;24.50;36.00;;;;;;5117824;28;20056;-39
2022/06/02 14:17:10;;;;;;;7.22;1.40;;;24.40;35.90;;;;;;5115946;28;20016;-38
2022/06/02 14:19:57;;;;;;;4.35;1.00;;;24.50;35.80;;;;;;5117713;28;20076;-40
2022/06/02 14:22:25;;;;;;;3.75;1.40;;;24.40;35.70;;;;;;5117173;28;20070;-39
2022/06/02 14:25:10;;;;;;;6.80;1.33;;;24.40;35.50;;;;;;5114841;28;20110;-38
2022/06/02 14:27:42;;;;;;;3.70;1.25;;;24.40;35.60;;;;;;5117101;28;20029;-38
2022/06/02 14:30:16;;;;;;;6.03;1.10;;;24.40;35.40;;;;;;5115964;28;20094;-38